Time;durP1;ratioP1;P1;durP2;ratioP2;P2;SDS_P1;SDS_P2;PMS_P1;PMS_P2;Temp;Humidity;BMP_temperature;BMP_pressure;BME280_temperature;BME280_humidity;BME280_pressure;Samples;Min_cycle;Max_cycle;Signal;HPM_P1;HPM_P2
2020/12/01 00:01:22;;;;;;;73.57;36.65;;;1.00;99.90;;;;;;5071801;28;20016;-47
2020/12/01 00:03:47;;;;;;;80.07;37.70;;;1.00;99.90;;;;;;5071907;28;20505;-46
2020/12/01 00:06:13;;;;;;;76.40;36.65;;;1.10;99.90;;;;;;5071620;28;20085;-47
2020/12/01 00:08:39;;;;;;;80.95;36.88;;;1.10;99.90;;;;;;5071785;28;20099;-45
2020/12/01 00:11:06;;;;;;;77.03;37.58;;;1.10;99.90;;;;;;5071814;28;20028;-45
2020/12/01 00:13:31;;;;;;;79.53;36.88;;;1.10;99.90;;;;;;5071600;28;20111;-43
2020/12/01 00:15:57;;;;;;;76.10;38.05;;;1.20;99.90;;;;;;5071748;28;20393;-46
2020/12/01 00:18:23;;;;;;;82.38;38.90;;;1.10;99.90;;;;;;5071246;28;20043;-45
2020/12/01 00:20:48;;;;;;;74.35;36.22;;;1.10;99.90;;;;;;5070152;28;20089;-43
2020/12/01 00:23:14;;;;;;;70.20;34.90;;;1.20;99.90;;;;;;5071594;28;20471;-43
2020/12/01 00:25:40;;;;;;;70.22;35.47;;;1.10;99.90;;;;;;5071568;28;20024;-44
2020/12/01 00:28:05;;;;;;;78.95;38.88;;;1.20;99.90;;;;;;5071304;28;20059;-44
2020/12/01 00:30:31;;;;;;;71.85;35.10;;;1.20;99.90;;;;;;5071334;28;20063;-48
2020/12/01 00:32:57;;;;;;;74.32;36.63;;;1.20;99.90;;;;;;5071373;28;20099;-45
2020/12/01 00:35:26;;;;;;;75.97;38.03;;;1.10;99.90;;;;;;5071152;28;20025;-44
2020/12/01 00:37:52;;;;;;;70.25;35.28;;;1.10;99.90;;;;;;5070975;28;20478;-44
2020/12/01 00:40:18;;;;;;;79.20;38.97;;;1.10;99.90;;;;;;5071074;28;20099;-48
2020/12/01 00:42:44;;;;;;;67.70;33.83;;;1.10;99.90;;;;;;5071134;28;20375;-43
2020/12/01 00:45:13;;;;;;;71.25;34.80;;;1.10;99.90;;;;;;5071105;28;20031;-47
2020/12/01 00:47:38;;;;;;;68.75;35.08;;;1.10;99.90;;;;;;5071055;28;20029;-44
2020/12/01 00:50:07;;;;;;;74.65;37.13;;;1.10;99.90;;;;;;5070773;28;20118;-43
2020/12/01 00:52:33;;;;;;;74.53;35.78;;;1.20;99.90;;;;;;5072337;28;20025;-46
2020/12/01 00:54:58;;;;;;;66.95;33.92;;;1.20;99.90;;;;;;5070978;28;20503;-46
2020/12/01 00:57:24;;;;;;;63.35;32.33;;;1.20;99.90;;;;;;5070888;28;20032;-47
2020/12/01 00:59:49;;;;;;;70.88;34.15;;;1.20;99.90;;;;;;5069284;28;20024;-44
2020/12/01 01:02:14;;;;;;;69.65;35.60;;;1.20;99.90;;;;;;5070994;28;20103;-45
2020/12/01 01:04:40;;;;;;;60.65;32.80;;;1.20;99.90;;;;;;5070891;28;20028;-51
2020/12/01 01:07:05;;;;;;;63.80;33.47;;;1.30;99.90;;;;;;5070704;28;20020;-46
2020/12/01 01:09:31;;;;;;;70.78;33.63;;;1.30;99.90;;;;;;5070514;28;20035;-48
2020/12/01 01:11:56;;;;;;;69.95;34.45;;;1.40;99.90;;;;;;5070890;28;20035;-48
2020/12/01 01:14:22;;;;;;;72.53;36.10;;;1.40;99.90;;;;;;5070781;28;20039;-45
2020/12/01 01:16:47;;;;;;;64.05;33.25;;;1.40;99.90;;;;;;5070573;28;20051;-44
2020/12/01 01:19:14;;;;;;;71.47;34.28;;;1.40;99.90;;;;;;5070619;28;20017;-43
2020/12/01 01:21:42;;;;;;;78.00;35.67;;;1.40;99.90;;;;;;5069361;28;20465;-45
2020/12/01 01:24:08;;;;;;;76.05;36.25;;;1.30;99.90;;;;;;5070629;28;20389;-48
2020/12/01 01:26:33;;;;;;;64.80;34.22;;;1.30;99.90;;;;;;5070460;28;20107;-46
2020/12/01 01:28:59;;;;;;;65.75;34.88;;;1.30;99.90;;;;;;5070543;28;20111;-44
2020/12/01 01:31:24;;;;;;;67.20;34.38;;;1.20;99.90;;;;;;5069951;28;20084;-47
2020/12/01 01:33:50;;;;;;;69.28;33.42;;;1.30;99.90;;;;;;5070476;28;20024;-44
2020/12/01 01:36:16;;;;;;;70.40;36.55;;;1.20;99.90;;;;;;5070633;28;20078;-47
2020/12/01 01:38:41;;;;;;;67.43;33.67;;;1.20;99.90;;;;;;5070442;28;20060;-44
2020/12/01 01:41:07;;;;;;;71.20;35.92;;;1.30;99.90;;;;;;5069800;28;20442;-45
2020/12/01 01:43:32;;;;;;;69.43;35.80;;;1.20;99.90;;;;;;5070438;28;20025;-48
2020/12/01 01:45:58;;;;;;;73.82;36.38;;;1.20;99.90;;;;;;5070328;28;20073;-47
2020/12/01 01:48:29;;;;;;;71.22;38.15;;;1.20;99.90;;;;;;5070491;28;20031;-46
2020/12/01 01:51:05;;;;;;;66.38;35.22;;;1.20;99.90;;;;;;5070286;28;20031;-44
2020/12/01 01:53:32;;;;;;;;;;;1.20;99.90;;;;;;5071116;28;20063;-44
2020/12/01 01:56:05;;;;;;;68.45;34.50;;;1.20;99.90;;;;;;5070219;28;19916;-47
2020/12/01 01:58:37;;;;;;;69.28;34.83;;;1.30;99.90;;;;;;5070252;28;20017;-48
2020/12/01 02:01:10;;;;;;;68.57;35.30;;;1.20;99.90;;;;;;5069871;28;20397;-45
2020/12/01 02:03:38;;;;;;;63.65;34.72;;;1.20;99.90;;;;;;5070248;28;20016;-46
2020/12/01 02:06:26;;;;;;;69.38;37.28;;;1.30;99.90;;;;;;5070268;28;20382;-45
2020/12/01 02:09:00;;;;;;;69.03;34.30;;;1.40;99.90;;;;;;5070261;28;20477;-44
2020/12/01 02:11:29;;;;;;;70.20;34.00;;;1.40;99.90;;;;;;5070034;28;20329;-46
2020/12/01 02:14:19;;;;;;;67.47;34.42;;;1.40;99.90;;;;;;5069881;28;20021;-45
2020/12/01 02:16:48;;;;;;;67.05;35.72;;;1.40;99.90;;;;;;5069953;28;20024;-45
2020/12/01 02:19:20;;;;;;;69.35;35.28;;;1.40;99.90;;;;;;5069942;28;20494;-46
2020/12/01 02:21:45;;;;;;;67.28;33.55;;;1.40;99.90;;;;;;5070318;28;20025;-44
2020/12/01 02:24:20;;;;;;;68.78;35.47;;;1.40;99.90;;;;;;5070450;28;20029;-47
2020/12/01 02:26:49;;;;;;;66.50;35.63;;;1.40;99.90;;;;;;5070170;28;20029;-44
2020/12/01 02:29:18;;;;;;;71.13;34.90;;;1.40;99.90;;;;;;5068709;28;20033;-47
2020/12/01 02:31:44;;;;;;;67.30;34.70;;;1.30;99.90;;;;;;5070203;28;20016;-46
2020/12/01 02:34:13;;;;;;;74.68;37.08;;;1.40;99.90;;;;;;5070276;28;20409;-44
2020/12/01 02:36:39;;;;;;;68.40;36.00;;;1.40;99.90;;;;;;5070108;28;20119;-50
2020/12/01 02:39:07;;;;;;;69.97;35.85;;;1.40;99.90;;;;;;5070250;28;20024;-48
2020/12/01 02:41:32;;;;;;;64.75;34.38;;;1.40;99.90;;;;;;5070003;28;20456;-45
2020/12/01 02:43:58;;;;;;;65.65;35.00;;;1.40;99.90;;;;;;5071741;28;20099;-45
2020/12/01 02:46:25;;;;;;;69.28;37.15;;;1.40;99.90;;;;;;5073535;28;20056;-44
2020/12/01 02:48:51;;;;;;;69.72;35.67;;;1.40;99.90;;;;;;5073489;28;20027;-48
2020/12/01 02:51:16;;;;;;;66.07;34.00;;;1.40;99.90;;;;;;5073449;28;20107;-44
2020/12/01 02:53:42;;;;;;;65.70;33.50;;;1.30;99.90;;;;;;5073439;28;20134;-47
2020/12/01 02:56:07;;;;;;;64.95;36.13;;;1.40;99.90;;;;;;5073387;28;20389;-45
2020/12/01 02:58:33;;;;;;;71.35;36.47;;;1.40;99.90;;;;;;5073251;28;20025;-49
2020/12/01 03:00:58;;;;;;;73.25;36.50;;;1.40;99.90;;;;;;5072878;28;20025;-46
2020/12/01 03:03:24;;;;;;;64.75;33.67;;;1.40;99.90;;;;;;5073307;28;20024;-45
2020/12/01 03:05:49;;;;;;;71.78;35.05;;;1.40;99.90;;;;;;5073407;28;20154;-45
2020/12/01 03:08:15;;;;;;;72.90;37.63;;;1.40;99.90;;;;;;5073199;28;20615;-45
2020/12/01 03:10:41;;;;;;;69.43;36.85;;;1.40;99.90;;;;;;5072883;28;20029;-44
2020/12/01 03:13:06;;;;;;;68.57;36.40;;;1.40;99.90;;;;;;5073164;28;20020;-48
2020/12/01 03:15:32;;;;;;;71.95;35.88;;;1.40;99.90;;;;;;5072878;28;20503;-50
2020/12/01 03:17:58;;;;;;;65.13;34.55;;;1.50;99.90;;;;;;5072993;28;20493;-45
2020/12/01 03:20:23;;;;;;;66.50;34.80;;;1.60;99.90;;;;;;5072719;28;20024;-44
2020/12/01 03:22:49;;;;;;;67.88;34.15;;;1.60;99.90;;;;;;5072927;28;20024;-45
2020/12/01 03:25:14;;;;;;;60.83;33.10;;;1.50;99.90;;;;;;5072859;28;20054;-44
2020/12/01 03:27:40;;;;;;;62.70;33.53;;;1.50;99.90;;;;;;5072779;28;20032;-47
2020/12/01 03:30:06;;;;;;;63.53;34.95;;;1.50;99.90;;;;;;5072323;28;20029;-45
2020/12/01 03:32:32;;;;;;;68.22;33.92;;;1.60;99.90;;;;;;5072667;28;20416;-44
2020/12/01 03:34:58;;;;;;;62.38;32.88;;;1.50;99.90;;;;;;5072925;28;20028;-47
2020/12/01 03:37:24;;;;;;;56.38;31.95;;;1.50;99.90;;;;;;5072507;28;20051;-46
2020/12/01 03:39:49;;;;;;;62.78;34.05;;;1.40;99.90;;;;;;5072274;28;20027;-47
2020/12/01 03:42:14;;;;;;;61.63;33.45;;;1.40;99.90;;;;;;5072281;28;20029;-44
2020/12/01 03:44:40;;;;;;;56.10;31.02;;;1.40;99.90;;;;;;5072196;28;20020;-44
2020/12/01 03:47:06;;;;;;;64.68;33.45;;;1.40;99.90;;;;;;5071071;28;20283;-48
2020/12/01 03:49:31;;;;;;;58.53;31.40;;;1.40;99.90;;;;;;5072220;28;20028;-44
2020/12/01 03:51:57;;;;;;;61.03;33.22;;;1.40;99.90;;;;;;5072231;28;20035;-45
2020/12/01 03:54:23;;;;;;;54.17;30.67;;;1.40;99.90;;;;;;5072014;28;20027;-47
2020/12/01 03:56:48;;;;;;;55.15;33.08;;;1.40;99.90;;;;;;5071959;28;20036;-44
2020/12/01 03:59:14;;;;;;;54.92;31.65;;;1.40;99.90;;;;;;5071847;28;20029;-46
2020/12/01 04:01:39;;;;;;;60.03;32.97;;;1.40;99.90;;;;;;5072016;28;20031;-44
2020/12/01 04:04:05;;;;;;;55.50;31.88;;;1.50;99.90;;;;;;5072175;28;20027;-47
2020/12/01 04:06:30;;;;;;;57.03;32.00;;;1.50;99.90;;;;;;5071869;28;20440;-47
2020/12/01 04:08:56;;;;;;;60.95;32.25;;;1.50;99.90;;;;;;5071839;28;20037;-46
2020/12/01 04:11:24;;;;;;;59.78;32.08;;;1.50;99.90;;;;;;5071627;28;20021;-45
2020/12/01 04:13:51;;;;;;;62.72;32.35;;;1.50;99.90;;;;;;5071792;28;20028;-45
2020/12/01 04:16:17;;;;;;;57.40;32.80;;;1.50;99.90;;;;;;5072068;28;20580;-44
2020/12/01 04:18:42;;;;;;;58.85;31.02;;;1.60;99.90;;;;;;5072177;28;20112;-44
2020/12/01 04:21:08;;;;;;;54.60;31.30;;;1.60;99.90;;;;;;5072161;28;20104;-48
2020/12/01 04:23:33;;;;;;;59.50;32.20;;;1.50;99.90;;;;;;5071754;28;20028;-50
2020/12/01 04:25:59;;;;;;;58.08;31.48;;;1.60;99.90;;;;;;5072103;28;20465;-44
2020/12/01 04:28:24;;;;;;;61.10;32.53;;;1.50;99.90;;;;;;5071352;28;20032;-46
2020/12/01 04:30:50;;;;;;;56.03;31.13;;;1.60;99.90;;;;;;5071147;28;20021;-46
2020/12/01 04:33:15;;;;;;;56.05;31.35;;;1.60;99.90;;;;;;5071555;28;20037;-48
2020/12/01 04:35:41;;;;;;;59.75;32.55;;;1.50;99.90;;;;;;5071088;28;20037;-46
2020/12/01 04:38:06;;;;;;;60.53;31.25;;;1.60;99.90;;;;;;5069992;28;20504;-50
2020/12/01 04:40:37;;;;;;;59.42;30.83;;;1.60;99.90;;;;;;5071056;28;20103;-50
2020/12/01 04:43:11;;;;;;;56.33;32.05;;;1.60;99.90;;;;;;5071255;28;20482;-45
2020/12/01 04:45:38;;;;;;;61.97;32.03;;;1.60;99.90;;;;;;5071245;28;20048;-49
2020/12/01 04:48:11;;;;;;;63.10;31.15;;;1.60;99.90;;;;;;5071448;28;20012;-48
2020/12/01 04:50:40;;;;;;;57.70;31.02;;;1.60;99.90;;;;;;5069512;28;20024;-45
2020/12/01 04:53:25;;;;;;;58.70;30.17;;;1.60;99.90;;;;;;5071155;28;20028;-45
2020/12/01 04:56:28;;;;;;;54.03;31.02;;;1.50;99.90;;;;;;5071184;28;20074;-47
2020/12/01 04:59:27;;;;;;;56.28;28.67;;;1.50;99.90;;;;;;5071166;28;20025;-45
2020/12/01 05:02:17;;;;;;;55.67;30.80;;;1.50;99.90;;;;;;5071155;28;20489;-46
2020/12/01 05:04:59;;;;;;;59.70;30.92;;;1.50;99.90;;;;;;5071164;28;20063;-46
2020/12/01 05:07:43;;;;;;;52.38;28.80;;;1.50;99.90;;;;;;5070506;28;20078;-45
2020/12/01 05:10:12;;;;;;;54.60;31.05;;;1.50;99.90;;;;;;5070813;28;20025;-50
2020/12/01 05:12:41;;;;;;;57.60;30.58;;;1.60;99.90;;;;;;5071241;28;20505;-47
2020/12/01 05:15:18;;;;;;;57.53;30.45;;;1.60;99.90;;;;;;5071107;28;20028;-48
2020/12/01 05:18:25;;;;;;;55.55;29.80;;;1.60;99.90;;;;;;5071337;28;20028;-46
2020/12/01 05:20:58;;;;;;;48.60;27.05;;;1.60;99.90;;;;;;5070574;28;20082;-47
2020/12/01 05:23:38;;;;;;;49.22;27.50;;;1.60;99.90;;;;;;5070918;28;20028;-46
2020/12/01 05:26:06;;;;;;;53.13;26.45;;;1.50;99.90;;;;;;5070810;28;20052;-46
2020/12/01 05:28:43;;;;;;;51.80;27.00;;;1.50;99.90;;;;;;5071265;28;20025;-45
2020/12/01 05:31:08;;;;;;;45.45;26.35;;;1.50;99.90;;;;;;5070851;28;20066;-47
2020/12/01 05:33:34;;;;;;;47.60;25.77;;;1.60;99.90;;;;;;5070897;28;20020;-45
2020/12/01 05:36:21;;;;;;;45.38;26.45;;;1.50;99.90;;;;;;5070717;28;20037;-49
2020/12/01 05:39:02;;;;;;;49.08;28.70;;;1.50;99.90;;;;;;5070988;28;20035;-48
2020/12/01 05:41:36;;;;;;;48.95;27.17;;;1.50;99.90;;;;;;5070668;28;20025;-45
2020/12/01 05:44:05;;;;;;;47.28;26.38;;;1.60;99.90;;;;;;5071051;28;20373;-49
2020/12/01 05:46:41;;;;;;;51.72;27.90;;;1.60;99.90;;;;;;5070152;28;20050;-46
2020/12/01 05:49:29;;;;;;;51.97;27.17;;;1.50;99.90;;;;;;5069165;28;20502;-45
2020/12/01 05:52:02;;;;;;;50.80;28.48;;;1.60;99.90;;;;;;5070380;28;20045;-46
2020/12/01 05:54:40;;;;;;;55.47;29.92;;;1.50;99.90;;;;;;5070190;28;20074;-46
2020/12/01 05:57:25;;;;;;;45.42;27.00;;;1.50;99.90;;;;;;5070172;28;20078;-46
2020/12/01 06:00:03;;;;;;;45.55;26.20;;;1.60;99.90;;;;;;5070485;28;20025;-44
2020/12/01 06:02:41;;;;;;;50.45;26.60;;;1.60;99.90;;;;;;5070378;28;20032;-45
2020/12/01 06:05:13;;;;;;;44.65;25.55;;;1.70;99.90;;;;;;5070629;28;20020;-46
2020/12/01 06:07:43;;;;;;;47.83;28.88;;;1.70;99.90;;;;;;5070478;28;20064;-46
2020/12/01 06:10:18;;;;;;;48.10;27.45;;;1.70;99.90;;;;;;5070020;28;20090;-46
2020/12/01 06:12:49;;;;;;;48.03;26.63;;;1.70;99.90;;;;;;5070239;28;20128;-46
2020/12/01 06:15:20;;;;;;;45.78;26.20;;;1.70;99.90;;;;;;5070505;28;20032;-47
2020/12/01 06:18:05;;;;;;;42.97;25.23;;;1.70;99.90;;;;;;5070250;28;20025;-48
2020/12/01 06:20:36;;;;;;;47.58;26.58;;;1.70;99.90;;;;;;5073849;28;20024;-45
2020/12/01 06:23:25;;;;;;;42.08;23.92;;;1.70;99.90;;;;;;5074599;28;20025;-48
2020/12/01 06:26:27;;;;;;;43.60;25.45;;;1.70;99.90;;;;;;5073860;28;20024;-48
2020/12/01 06:29:22;;;;;;;44.35;24.23;;;1.60;99.90;;;;;;5074101;28;20070;-48
2020/12/01 06:31:48;;;;;;;48.30;26.33;;;1.70;99.90;;;;;;5073886;28;20438;-46
2020/12/01 06:34:37;;;;;;;43.00;25.25;;;1.70;99.90;;;;;;5074180;28;20048;-48
2020/12/01 06:37:22;;;;;;;41.85;23.83;;;1.60;99.90;;;;;;5073725;28;20420;-46
2020/12/01 06:40:01;;;;;;;42.95;25.52;;;1.60;99.90;;;;;;5073057;28;20047;-45
2020/12/01 06:42:51;;;;;;;46.60;26.35;;;1.60;99.90;;;;;;5073346;28;20066;-47
2020/12/01 06:45:28;;;;;;;42.47;25.88;;;1.60;99.90;;;;;;5073376;28;20539;-45
2020/12/01 06:48:04;;;;;;;47.42;25.98;;;1.60;99.90;;;;;;5073650;28;20501;-45
2020/12/01 06:50:31;;;;;;;50.83;27.30;;;1.70;99.90;;;;;;5073132;28;20033;-46
2020/12/01 06:53:03;;;;;;;49.53;26.95;;;1.60;99.90;;;;;;5074346;28;20389;-44
2020/12/01 06:55:46;;;;;;;48.85;26.27;;;1.60;99.90;;;;;;5073162;28;20028;-45
2020/12/01 06:58:20;;;;;;;43.70;24.75;;;1.60;99.90;;;;;;5073396;28;20024;-48
2020/12/01 07:00:45;;;;;;;44.50;26.20;;;1.60;99.90;;;;;;5073367;28;20481;-48
2020/12/01 07:03:11;;;;;;;47.97;25.35;;;1.50;99.90;;;;;;5073227;28;20024;-48
2020/12/01 07:05:37;;;;;;;42.40;24.67;;;1.60;99.90;;;;;;5073161;28;20145;-47
2020/12/01 07:08:27;;;;;;;44.83;25.77;;;1.60;99.90;;;;;;5073393;28;20539;-45
2020/12/01 07:11:05;;;;;;;46.70;25.83;;;1.60;99.90;;;;;;5072795;28;20477;-45
2020/12/01 07:13:43;;;;;;;45.80;23.42;;;1.80;99.90;;;;;;5073103;28;20025;-46
2020/12/01 07:16:27;;;;;;;42.13;24.70;;;1.80;99.90;;;;;;5071658;28;20036;-45
2020/12/01 07:18:58;;;;;;;42.35;24.65;;;1.80;99.90;;;;;;5073037;28;20095;-48
2020/12/01 07:21:41;;;;;;;40.75;25.83;;;1.90;99.90;;;;;;5072641;28;20085;-47
2020/12/01 07:24:36;;;;;;;36.63;23.05;;;1.80;99.90;;;;;;5072674;28;20414;-44
2020/12/01 07:27:11;;;;;;;41.58;24.17;;;1.80;99.90;;;;;;5072810;28;20090;-44
2020/12/01 07:29:47;;;;;;;41.47;24.58;;;1.80;99.90;;;;;;5072047;28;20032;-45
2020/12/01 07:32:26;;;;;;;43.60;25.83;;;1.80;99.90;;;;;;5072624;28;20024;-46
2020/12/01 07:35:29;;;;;;;41.58;23.88;;;1.90;99.90;;;;;;5072902;28;20120;-44
2020/12/01 07:38:26;;;;;;;42.83;25.27;;;1.90;99.90;;;;;;5072440;28;20031;-47
2020/12/01 07:40:56;;;;;;;41.40;22.88;;;2.00;99.90;;;;;;5072157;28;20024;-46
2020/12/01 07:43:21;;;;;;;39.92;22.38;;;2.00;99.90;;;;;;5072788;28;20469;-46
2020/12/01 07:45:59;;;;;;;45.70;24.48;;;2.00;99.90;;;;;;5072392;28;20016;-50
2020/12/01 07:48:25;;;;;;;39.30;23.90;;;2.00;99.90;;;;;;5072444;28;20028;-45
2020/12/01 07:51:05;;;;;;;41.38;23.88;;;1.90;99.90;;;;;;5072257;28;20020;-45
2020/12/01 07:53:33;;;;;;;43.08;24.80;;;1.80;99.90;;;;;;5072212;28;20028;-46
2020/12/01 07:56:02;;;;;;;39.53;23.05;;;1.90;99.90;;;;;;5072363;28;20112;-44
2020/12/01 07:58:30;;;;;;;39.92;24.38;;;2.00;99.90;;;;;;5072573;28;20016;-45
2020/12/01 08:00:56;;;;;;;39.65;22.98;;;2.00;99.90;;;;;;5071800;28;20017;-43
2020/12/01 08:03:36;;;;;;;35.67;21.67;;;2.10;99.90;;;;;;5070633;28;20473;-47
2020/12/01 08:06:16;;;;;;;38.90;22.48;;;2.10;99.90;;;;;;5072476;28;20486;-45
2020/12/01 08:08:44;;;;;;;35.83;21.65;;;2.10;99.90;;;;;;5071965;28;20303;-44
2020/12/01 08:11:13;;;;;;;34.90;22.30;;;2.10;99.90;;;;;;5071580;28;20032;-48
2020/12/01 08:13:41;;;;;;;40.97;23.10;;;2.10;99.90;;;;;;5072180;28;20043;-51
2020/12/01 08:16:19;;;;;;;44.80;23.42;;;2.20;99.90;;;;;;5071568;28;20070;-47
2020/12/01 08:18:46;;;;;;;38.47;21.25;;;2.20;99.90;;;;;;5071962;28;20021;-47
2020/12/01 08:21:19;;;;;;;33.22;21.63;;;2.10;99.90;;;;;;5067105;28;20032;-48
2020/12/01 08:23:47;;;;;;;42.90;24.25;;;2.10;99.90;;;;;;5067251;28;20021;-51
2020/12/01 08:26:24;;;;;;;34.85;20.92;;;2.00;99.90;;;;;;5071640;28;20486;-51
2020/12/01 08:29:02;;;;;;;39.72;22.23;;;2.10;99.90;;;;;;5059149;28;20024;-47
2020/12/01 08:31:58;;;;;;;35.88;22.40;;;2.10;99.90;;;;;;5071289;28;20035;-50
2020/12/01 08:34:37;;;;;;;40.85;23.05;;;2.10;99.90;;;;;;5055226;28;20032;-44
2020/12/01 08:37:41;;;;;;;37.70;23.45;;;2.10;99.90;;;;;;5051272;28;20056;-49
2020/12/01 08:40:10;;;;;;;39.90;23.02;;;2.10;99.90;;;;;;5035278;28;20445;-49
2020/12/01 08:42:51;;;;;;;38.25;23.23;;;2.20;99.90;;;;;;5050406;28;20093;-51
2020/12/01 08:45:38;;;;;;;41.08;24.80;;;2.20;99.90;;;;;;5062562;28;20550;-45
2020/12/01 08:48:06;;;;;;;39.92;22.83;;;2.20;99.90;;;;;;5071150;28;20040;-47
2020/12/01 08:50:38;;;;;;;38.75;22.92;;;2.30;99.90;;;;;;5060740;28;20053;-45
2020/12/01 08:53:11;;;;;;;35.30;21.73;;;2.40;99.90;;;;;;5064129;28;20036;-48
2020/12/01 08:55:50;;;;;;;36.15;22.08;;;2.30;99.90;;;;;;5069174;28;20570;-46
2020/12/01 08:58:24;;;;;;;35.88;22.52;;;2.20;99.90;;;;;;5069101;28;20445;-48
2020/12/01 09:01:14;;;;;;;41.72;24.65;;;2.30;99.90;;;;;;5065582;28;20020;-49
2020/12/01 09:03:58;;;;;;;41.13;24.92;;;2.20;99.90;;;;;;5051212;28;20382;-46
2020/12/01 09:06:33;;;;;;;38.80;21.90;;;2.30;99.90;;;;;;5054317;28;20033;-49
2020/12/01 09:09:15;;;;;;;36.05;21.77;;;2.40;99.90;;;;;;5058966;28;20107;-50
2020/12/01 09:14:38;;;;;;;39.47;24.13;;;2.40;99.90;;;;;;5051898;28;20029;-44
2020/12/01 09:17:54;;;;;;;37.45;22.67;;;2.40;99.90;;;;;;5050470;28;20021;-45
2020/12/01 09:23:12;;;;;;;41.40;24.03;;;2.50;99.90;;;;;;5063690;28;20474;-47
2020/12/01 09:25:38;;;;;;;36.53;22.95;;;2.60;99.90;;;;;;5062670;28;20128;-42
2020/12/01 09:28:14;;;;;;;43.25;23.42;;;2.50;99.90;;;;;;5051156;28;20104;-44
2020/12/01 09:30:41;;;;;;;42.67;24.10;;;2.50;99.90;;;;;;5050117;28;20029;-45
2020/12/01 09:33:09;;;;;;;36.63;23.50;;;2.40;99.90;;;;;;5057670;28;20493;-44
2020/12/01 09:35:35;;;;;;;39.17;22.75;;;2.40;99.90;;;;;;5054756;28;20033;-44
2020/12/01 09:38:01;;;;;;;45.13;25.58;;;2.40;99.90;;;;;;5049192;28;20546;-47
2020/12/01 09:40:28;;;;;;;39.92;25.00;;;2.40;99.90;;;;;;5062261;28;20024;-45
2020/12/01 09:42:59;;;;;;;41.67;23.60;;;2.40;99.90;;;;;;5070497;28;20025;-45
2020/12/01 09:45:27;;;;;;;36.38;22.40;;;2.50;99.90;;;;;;5068512;28;20027;-45
2020/12/01 09:50:37;;;;;;;44.20;24.25;;;2.60;99.90;;;;;;5050327;28;20022;-45
2020/12/01 09:53:15;;;;;;;42.40;25.17;;;2.50;99.90;;;;;;5067517;28;20024;-47
2020/12/01 09:58:25;;;;;;;44.90;24.80;;;2.70;99.90;;;;;;5054771;28;20040;-45
2020/12/01 10:08:52;;;;;;;37.30;22.73;;;2.70;99.90;;;;;;5065837;28;20033;-45
2020/12/01 10:29:48;;;;;;;39.65;24.00;;;2.70;99.90;;;;;;5065742;28;20029;-45
2020/12/01 10:31:48;;;;;;;35.85;21.92;;;2.70;99.90;;;;;;5053454;28;20029;-44
2020/12/01 10:36:21;;;;;;;35.50;21.75;;;2.90;99.90;;;;;;5053663;28;20124;-46
2020/12/01 10:38:46;;;;;;;41.20;22.92;;;3.00;99.90;;;;;;5053878;28;20470;-45
2020/12/01 10:41:12;;;;;;;39.85;22.95;;;3.00;99.90;;;;;;5053467;28;20048;-44
2020/12/01 10:43:38;;;;;;;36.28;21.30;;;3.00;99.90;;;;;;5067490;28;20032;-46
2020/12/01 10:46:04;;;;;;;40.53;22.65;;;3.00;99.90;;;;;;5073603;28;20500;-45
2020/12/01 10:48:29;;;;;;;37.85;23.33;;;2.90;99.90;;;;;;5059351;28;20211;-48
2020/12/01 10:50:55;;;;;;;35.72;21.17;;;2.90;99.90;;;;;;5053207;28;20397;-44
2020/12/01 10:53:20;;;;;;;38.70;23.58;;;3.00;99.90;;;;;;5069512;28;20032;-45
2020/12/01 10:55:45;;;;;;;44.15;22.63;;;3.10;99.90;;;;;;5062674;28;20089;-45
2020/12/01 10:58:11;;;;;;;35.67;23.77;;;3.20;99.90;;;;;;5054135;28;20079;-46
2020/12/01 11:00:36;;;;;;;36.78;21.95;;;3.30;99.90;;;;;;5056435;28;20048;-46
2020/12/01 11:03:02;;;;;;;38.17;22.48;;;3.20;99.90;;;;;;5059041;28;20029;-46
2020/12/01 11:05:31;;;;;;;37.80;22.25;;;3.40;99.90;;;;;;5058127;28;20618;-46
2020/12/01 11:07:57;;;;;;;36.53;21.83;;;3.40;99.90;;;;;;5053352;28;20079;-49
2020/12/01 11:10:23;;;;;;;34.00;21.60;;;3.30;99.90;;;;;;5064508;28;20052;-49
2020/12/01 11:12:49;;;;;;;35.55;21.75;;;3.30;99.90;;;;;;5072990;28;20059;-46
2020/12/01 11:15:15;;;;;;;38.50;23.30;;;3.20;99.90;;;;;;5060419;28;20117;-45
2020/12/01 11:17:41;;;;;;;33.35;20.80;;;3.30;99.90;;;;;;5053133;28;20025;-48
2020/12/01 11:20:08;;;;;;;39.60;22.98;;;3.30;99.90;;;;;;5064767;28;20028;-45
2020/12/01 11:22:34;;;;;;;33.13;21.02;;;3.20;99.90;;;;;;5052787;28;20071;-48
2020/12/01 11:24:59;;;;;;;33.10;21.17;;;3.20;99.90;;;;;;5059995;28;20457;-45
2020/12/01 11:27:25;;;;;;;37.60;21.77;;;3.10;99.90;;;;;;5072559;28;20082;-50
2020/12/01 11:29:51;;;;;;;31.20;21.05;;;3.20;99.90;;;;;;5069873;28;20098;-46
2020/12/01 11:32:17;;;;;;;32.00;20.33;;;3.30;99.90;;;;;;5053597;28;20063;-47
2020/12/01 11:34:42;;;;;;;30.48;20.90;;;3.30;99.90;;;;;;5060094;28;20028;-48
2020/12/01 11:37:08;;;;;;;37.92;22.80;;;3.30;99.90;;;;;;5072379;28;20039;-49
2020/12/01 11:39:34;;;;;;;35.50;22.88;;;3.30;99.90;;;;;;5058936;28;20029;-46
2020/12/01 11:41:59;;;;;;;39.28;22.45;;;3.20;99.90;;;;;;5072454;28;20054;-45
2020/12/01 11:44:25;;;;;;;38.75;22.77;;;3.10;99.90;;;;;;5064420;28;20104;-46
2020/12/01 11:46:51;;;;;;;42.85;24.92;;;3.00;99.90;;;;;;5052300;28;20045;-45
2020/12/01 11:49:16;;;;;;;40.83;23.05;;;2.90;99.90;;;;;;5055282;28;20041;-52
2020/12/01 11:51:45;;;;;;;40.58;24.15;;;2.90;99.90;;;;;;5062187;28;20028;-54
2020/12/01 11:54:11;;;;;;;39.58;23.13;;;2.90;99.90;;;;;;5061741;28;20025;-52
2020/12/01 11:56:37;;;;;;;34.55;23.63;;;2.80;99.90;;;;;;5068598;28;20503;-51
2020/12/01 11:59:03;;;;;;;42.35;24.67;;;2.80;99.90;;;;;;5066799;28;20025;-53
2020/12/01 12:01:29;;;;;;;43.65;26.95;;;2.90;99.90;;;;;;5067824;28;20028;-53
2020/12/01 12:03:54;;;;;;;39.60;24.15;;;2.90;99.90;;;;;;5060924;28;20028;-51
2020/12/01 12:06:20;;;;;;;40.70;23.83;;;2.90;99.90;;;;;;5069088;28;20086;-53
2020/12/01 12:08:46;;;;;;;47.70;25.10;;;2.90;99.90;;;;;;5066992;28;20028;-51
2020/12/01 12:11:12;;;;;;;42.67;25.00;;;2.90;99.90;;;;;;5068584;28;20039;-57
2020/12/01 12:13:38;;;;;;;38.95;24.50;;;3.00;99.90;;;;;;5067266;28;20108;-49
2020/12/01 12:16:04;;;;;;;54.33;25.65;;;3.00;99.90;;;;;;5068938;28;20511;-48
2020/12/01 12:18:29;;;;;;;43.78;24.08;;;3.00;99.90;;;;;;5068053;28;20031;-50
2020/12/01 12:20:55;;;;;;;51.58;25.73;;;3.00;99.90;;;;;;5065159;28;20021;-51
2020/12/01 12:23:20;;;;;;;49.08;25.33;;;3.10;99.90;;;;;;5059800;28;20117;-49
2020/12/01 12:25:46;;;;;;;39.85;24.25;;;3.10;99.90;;;;;;5051515;28;20443;-49
2020/12/01 12:28:11;;;;;;;35.85;22.77;;;3.10;99.90;;;;;;5051494;28;20079;-45
2020/12/01 12:30:37;;;;;;;42.83;25.00;;;3.10;99.90;;;;;;5054929;28;20031;-50
2020/12/01 12:33:03;;;;;;;44.33;24.25;;;3.10;99.90;;;;;;5068993;28;20120;-52
2020/12/01 12:35:28;;;;;;;45.30;24.83;;;3.10;99.90;;;;;;5070647;28;20028;-50
2020/12/01 12:37:54;;;;;;;42.25;24.83;;;3.00;99.90;;;;;;5071021;28;20029;-50
2020/12/01 12:40:20;;;;;;;44.03;24.63;;;3.00;99.90;;;;;;5051604;28;20025;-46
2020/12/01 12:42:45;;;;;;;41.05;25.00;;;3.00;99.90;;;;;;5051057;28;20017;-50
2020/12/01 12:45:12;;;;;;;44.75;24.67;;;3.00;99.90;;;;;;5067585;28;20029;-53
2020/12/01 12:47:38;;;;;;;41.38;23.70;;;3.00;99.90;;;;;;5070814;28;20036;-49
2020/12/01 12:50:06;;;;;;;42.40;25.80;;;3.00;99.90;;;;;;5069955;28;20036;-53
2020/12/01 12:52:31;;;;;;;42.35;24.20;;;3.00;99.90;;;;;;5079567;22;20195;-55
2020/12/01 12:54:57;;;;;;;50.55;26.27;;;3.10;99.90;;;;;;5029771;28;20138;-53
2020/12/01 12:57:22;;;;;;;40.47;25.27;;;3.10;99.90;;;;;;5049948;28;20083;-50
2020/12/01 12:59:48;;;;;;;49.85;24.60;;;3.10;99.90;;;;;;5031612;28;20021;-52
2020/12/01 13:02:13;;;;;;;45.58;24.50;;;3.20;99.90;;;;;;5050862;28;20032;-57
2020/12/01 13:04:39;;;;;;;43.95;25.98;;;3.30;99.90;;;;;;5050873;28;20028;-53
2020/12/01 13:07:04;;;;;;;45.28;25.33;;;3.30;99.90;;;;;;5050882;28;20017;-52
2020/12/01 13:09:30;;;;;;;38.78;24.40;;;3.20;99.90;;;;;;5032289;28;20021;-56
2020/12/01 13:11:55;;;;;;;49.08;27.73;;;3.20;99.90;;;;;;5050916;28;20120;-59
2020/12/01 13:14:24;;;;;;;42.92;25.55;;;3.10;99.90;;;;;;5051217;28;20072;-48
2020/12/01 13:16:50;;;;;;;48.13;26.05;;;3.10;99.90;;;;;;5051044;28;20466;-55
2020/12/01 13:19:16;;;;;;;47.25;25.70;;;3.10;99.90;;;;;;5050068;28;20087;-48
2020/12/01 13:21:42;;;;;;;46.90;25.95;;;3.00;99.90;;;;;;5032763;28;20021;-53
2020/12/01 13:24:08;;;;;;;41.53;24.15;;;3.10;99.90;;;;;;5033137;28;20021;-53
2020/12/01 13:26:33;;;;;;;44.90;26.50;;;3.10;99.90;;;;;;5031486;28;20029;-54
2020/12/01 13:28:59;;;;;;;47.08;27.75;;;3.10;99.90;;;;;;5050108;28;20032;-53
2020/12/01 13:31:24;;;;;;;41.55;24.95;;;3.30;99.90;;;;;;5031448;28;20025;-50
2020/12/01 13:33:50;;;;;;;42.38;25.27;;;3.40;99.90;;;;;;5050327;28;20110;-56